Time;durP1;ratioP1;P1;durP2;ratioP2;P2;SDS_P1;SDS_P2;PMS_P1;PMS_P2;Temp;Humidity;BMP_temperature;BMP_pressure;BME280_temperature;BME280_humidity;BME280_pressure;Samples;Min_cycle;Max_cycle;Signal;HPM_P1;HPM_P2
2022/01/21 00:02:35;;;;;;;16.98;4.80;;;;;;;;;;6238092;28;20332;-61
2022/01/21 00:05:36;;;;;;;15.95;4.97;;;;;;;;;;6237871;28;20055;-61
2022/01/21 00:08:39;;;;;;;12.50;4.45;;;;;;;;;;6236289;28;21169;-60
2022/01/21 00:11:40;;;;;;;9.45;4.53;;;;;;;;;;6239661;28;20056;-60
2022/01/21 00:14:43;;;;;;;11.95;3.92;;;;;;;;;;6238175;28;20069;-61
2022/01/21 00:17:44;;;;;;;14.18;5.40;;;;;;;;;;6234763;28;20410;-60
2022/01/21 00:30:44;;;;;;;11.80;4.25;;;;;;;;;;6235559;28;20512;-61
2022/01/21 00:33:44;;;;;;;13.05;4.63;;;;;;;;;;6235887;28;20060;-60
2022/01/21 00:36:45;;;;;;;9.23;3.58;;;;;;;;;;6237405;28;20558;-60
2022/01/21 00:39:52;;;;;;;10.50;4.47;;;;;;;;;;6239873;28;20118;-60
2022/01/21 00:43:11;;;;;;;12.65;4.18;;;;;;;;;;6239086;28;20120;-61
2022/01/21 00:46:13;;;;;;;10.25;3.97;;;;;;;;;;6239901;28;20182;-60
2022/01/21 00:49:13;;;;;;;12.43;4.47;;;;;;;;;;6237006;28;20515;-61
2022/01/21 00:52:14;;;;;;;9.23;3.88;;;;;;;;;;6234859;28;20057;-61
2022/01/21 00:55:15;;;;;;;13.52;4.38;;;;;;;;;;6237887;28;21653;-61
2022/01/21 00:58:15;;;;;;;12.82;4.47;;;;;;;;;;6240256;28;20873;-61
2022/01/21 01:01:16;;;;;;;12.48;4.65;;;;;;;;;;6238394;28;20260;-61
2022/01/21 01:04:17;;;;;;;14.35;4.30;;;;;;;;;;6241694;28;20046;-60
2022/01/21 01:07:19;;;;;;;15.82;5.57;;;;;;;;;;6247012;28;20057;-61
2022/01/21 01:10:38;;;;;;;15.93;5.32;;;;;;;;;;6245681;28;20048;-60
2022/01/21 01:20:07;;;;;;;12.85;5.45;;;;;;;;;;6234917;28;20515;-59
2022/01/21 01:23:22;;;;;;;15.43;4.30;;;;;;;;;;6235609;28;20060;-60
2022/01/21 01:29:42;;;;;;;18.25;6.15;;;;;;;;;;6236410;28;20374;-60
2022/01/21 01:32:44;;;;;;;15.65;4.72;;;;;;;;;;6238527;28;20120;-61
2022/01/21 01:35:45;;;;;;;11.23;4.45;;;;;;;;;;6236612;28;20064;-60
2022/01/21 01:42:27;;;;;;;12.10;5.25;;;;;;;;;;6236388;28;20075;-61
2022/01/21 01:52:08;;;;;;;13.13;4.38;;;;;;;;;;6218559;28;20034;-61
2022/01/21 01:55:09;;;;;;;10.95;4.00;;;;;;;;;;6235866;28;20171;-60
2022/01/21 01:58:12;;;;;;;8.75;4.07;;;;;;;;;;6236758;28;20519;-61
2022/01/21 02:01:13;;;;;;;11.60;4.57;;;;;;;;;;6236488;28;20042;-60
2022/01/21 02:04:14;;;;;;;8.40;2.95;;;;;;;;;;6234144;28;20057;-60
2022/01/21 02:07:15;;;;;;;10.50;3.92;;;;;;;;;;6238120;28;20049;-61
2022/01/21 02:10:15;;;;;;;11.23;3.95;;;;;;;;;;6235058;28;20056;-61
2022/01/21 02:13:22;;;;;;;13.45;4.03;;;;;;;;;;6236431;28;20038;-60
2022/01/21 02:22:50;;;;;;;;;;;;;;;;;;6235599;28;20049;-60
2022/01/21 02:25:51;;;;;;;8.38;3.15;;;;;;;;;;6235898;28;20095;-60
2022/01/21 02:28:53;;;;;;;12.52;3.70;;;;;;;;;;6234816;28;20151;-60
2022/01/21 02:31:55;;;;;;;8.13;3.78;;;;;;;;;;6233808;28;20033;-60
2022/01/21 02:34:55;;;;;;;8.90;3.88;;;;;;;;;;6236003;28;20199;-61
2022/01/21 02:37:56;;;;;;;10.63;3.92;;;;;;;;;;6233743;28;21019;-59
2022/01/21 02:40:57;;;;;;;11.07;3.83;;;;;;;;;;6231411;28;20055;-61
2022/01/21 02:43:58;;;;;;;15.27;3.10;;;;;;;;;;6233156;28;20137;-60
2022/01/21 02:47:01;;;;;;;12.43;3.83;;;;;;;;;;6235307;28;20042;-60
2022/01/21 02:50:03;;;;;;;10.15;3.28;;;;;;;;;;6232764;28;20113;-60
2022/01/21 02:53:23;;;;;;;7.40;3.00;;;;;;;;;;6236030;28;20034;-60
2022/01/21 02:56:24;;;;;;;8.68;3.40;;;;;;;;;;6233295;28;20049;-60
2022/01/21 02:59:26;;;;;;;10.90;2.90;;;;;;;;;;6235894;28;20153;-60
2022/01/21 03:02:26;;;;;;;7.72;2.78;;;;;;;;;;6238812;28;20449;-60
2022/01/21 03:05:27;;;;;;;8.18;2.55;;;;;;;;;;6240967;28;20551;-60
2022/01/21 03:08:30;;;;;;;6.35;2.67;;;;;;;;;;6236664;28;20045;-60
2022/01/21 03:11:31;;;;;;;10.45;3.05;;;;;;;;;;6239712;28;20558;-60
2022/01/21 03:14:31;;;;;;;12.30;3.28;;;;;;;;;;6238468;28;20053;-60
2022/01/21 03:17:33;;;;;;;7.60;2.80;;;;;;;;;;6239737;28;20125;-61
2022/01/21 03:20:33;;;;;;;9.70;2.53;;;;;;;;;;6237391;28;20073;-60
2022/01/21 03:23:34;;;;;;;7.78;2.22;;;;;;;;;;6241385;28;20488;-61
2022/01/21 03:26:35;;;;;;;7.72;2.42;;;;;;;;;;6237813;28;20049;-61
2022/01/21 03:29:36;;;;;;;7.35;2.63;;;;;;;;;;6237892;28;20128;-60
2022/01/21 03:32:37;;;;;;;7.75;2.55;;;;;;;;;;6236011;28;20476;-60
2022/01/21 03:35:38;;;;;;;8.05;2.63;;;;;;;;;;6237580;28;20050;-61
2022/01/21 03:38:39;;;;;;;10.32;3.20;;;;;;;;;;6235588;28;20056;-60
2022/01/21 03:41:39;;;;;;;7.55;2.50;;;;;;;;;;6237054;28;22229;-61
2022/01/21 03:44:40;;;;;;;6.80;2.15;;;;;;;;;;6234688;28;20070;-61
2022/01/21 03:47:45;;;;;;;9.57;2.45;;;;;;;;;;6237996;28;20132;-60
2022/01/21 03:50:45;;;;;;;5.10;2.20;;;;;;;;;;6237462;28;20049;-60
2022/01/21 03:53:47;;;;;;;7.15;2.88;;;;;;;;;;6237901;28;20129;-61
2022/01/21 03:56:47;;;;;;;10.77;2.93;;;;;;;;;;6238649;28;20069;-61
2022/01/21 03:59:48;;;;;;;10.25;3.10;;;;;;;;;;6236342;28;20048;-61
2022/01/21 04:02:50;;;;;;;12.95;3.10;;;;;;;;;;6237009;28;20053;-61
2022/01/21 04:05:51;;;;;;;10.33;3.00;;;;;;;;;;6235933;28;20479;-61
2022/01/21 04:08:51;;;;;;;8.18;2.95;;;;;;;;;;6240969;28;20040;-61
2022/01/21 04:11:52;;;;;;;7.93;3.05;;;;;;;;;;6234855;28;20045;-60
2022/01/21 04:14:53;;;;;;;9.15;3.38;;;;;;;;;;6239292;28;20042;-61
2022/01/21 04:17:53;;;;;;;10.02;2.85;;;;;;;;;;6235900;28;20471;-61
2022/01/21 04:20:54;;;;;;;12.02;3.38;;;;;;;;;;6236945;28;20048;-60
2022/01/21 04:23:55;;;;;;;11.10;3.50;;;;;;;;;;6239488;28;20211;-61
2022/01/21 04:26:55;;;;;;;12.07;3.20;;;;;;;;;;6239612;28;20095;-61
2022/01/21 04:29:56;;;;;;;8.93;3.75;;;;;;;;;;6234902;28;20057;-61
2022/01/21 04:32:57;;;;;;;7.75;3.20;;;;;;;;;;6238000;28;20590;-61
2022/01/21 04:35:58;;;;;;;6.43;2.90;;;;;;;;;;6241027;28;20037;-61
2022/01/21 04:39:00;;;;;;;7.60;2.63;;;;;;;;;;6240117;28;20052;-61
2022/01/21 04:48:39;;;;;;;9.13;2.65;;;;;;;;;;6241896;28;20404;-61
2022/01/21 04:51:48;;;;;;;9.38;2.90;;;;;;;;;;6242030;28;20091;-61
2022/01/21 04:54:49;;;;;;;7.60;2.42;;;;;;;;;;6233130;28;20474;-62
2022/01/21 04:57:50;;;;;;;8.60;2.70;;;;;;;;;;6235389;28;20065;-61
2022/01/21 05:00:51;;;;;;;7.97;3.03;;;;;;;;;;6238175;28;20053;-61
2022/01/21 05:03:51;;;;;;;10.98;3.30;;;;;;;;;;6236989;28;20110;-61
2022/01/21 05:06:54;;;;;;;6.57;2.75;;;;;;;;;;6255352;28;20080;-61
2022/01/21 05:09:54;;;;;;;9.15;3.55;;;;;;;;;;6242816;28;20143;-61
2022/01/21 05:12:55;;;;;;;6.55;2.65;;;;;;;;;;6235302;28;20112;-62
2022/01/21 05:16:09;;;;;;;10.40;2.95;;;;;;;;;;6236276;28;20042;-61
2022/01/21 05:19:15;;;;;;;10.32;2.78;;;;;;;;;;6232718;28;20072;-61
2022/01/21 05:22:16;;;;;;;12.07;2.20;;;;;;;;;;6236152;28;20064;-62
2022/01/21 05:25:18;;;;;;;8.10;2.67;;;;;;;;;;6236430;28;20136;-61
2022/01/21 05:28:19;;;;;;;9.13;2.78;;;;;;;;;;6237267;28;20069;-62
2022/01/21 05:31:19;;;;;;;12.18;2.92;;;;;;;;;;6233363;28;20056;-61
2022/01/21 05:34:21;;;;;;;7.93;2.78;;;;;;;;;;6235729;28;20049;-61
2022/01/21 05:37:21;;;;;;;10.48;2.60;;;;;;;;;;6234178;28;20158;-61
2022/01/21 05:40:24;;;;;;;8.65;2.50;;;;;;;;;;6235069;28;20053;-62
2022/01/21 05:43:24;;;;;;;11.10;3.25;;;;;;;;;;6236879;28;20077;-61
2022/01/21 05:49:35;;;;;;;9.25;3.35;;;;;;;;;;6229609;28;20906;-61
2022/01/21 05:52:41;;;;;;;10.50;3.50;;;;;;;;;;6233732;28;20504;-63
2022/01/21 05:55:43;;;;;;;8.20;2.58;;;;;;;;;;6233098;28;20051;-61
2022/01/21 05:58:43;;;;;;;11.18;3.38;;;;;;;;;;6235840;28;20065;-62
2022/01/21 06:01:44;;;;;;;10.23;3.20;;;;;;;;;;6234665;28;20701;-61
2022/01/21 06:04:49;;;;;;;13.13;4.05;;;;;;;;;;6236048;28;20057;-61
2022/01/21 06:07:50;;;;;;;13.38;3.55;;;;;;;;;;6233514;28;20392;-61
2022/01/21 06:10:51;;;;;;;13.40;3.53;;;;;;;;;;6232158;28;20192;-62
2022/01/21 06:13:51;;;;;;;9.75;3.88;;;;;;;;;;6234043;28;20037;-61
2022/01/21 06:16:52;;;;;;;12.70;4.00;;;;;;;;;;6234411;28;20382;-61
2022/01/21 06:19:53;;;;;;;15.15;4.40;;;;;;;;;;6232052;28;20049;-62
2022/01/21 06:22:54;;;;;;;13.43;4.38;;;;;;;;;;6235197;28;20045;-62
2022/01/21 06:25:54;;;;;;;12.48;5.03;;;;;;;;;;6237439;28;20042;-62
2022/01/21 06:28:55;;;;;;;12.85;4.28;;;;;;;;;;6235490;28;20076;-63
2022/01/21 06:31:56;;;;;;;14.95;4.57;;;;;;;;;;6235613;28;20421;-61
2022/01/21 06:34:57;;;;;;;18.17;4.30;;;;;;;;;;6235751;28;20049;-62
2022/01/21 06:37:57;;;;;;;15.98;5.53;;;;;;;;;;6237046;28;20412;-62
2022/01/21 06:40:58;;;;;;;12.88;4.82;;;;;;;;;;6238811;28;20407;-62
2022/01/21 06:43:59;;;;;;;14.07;4.75;;;;;;;;;;6237825;28;20057;-62
2022/01/21 06:47:00;;;;;;;11.38;4.80;;;;;;;;;;6239899;28;20841;-62
2022/01/21 06:50:00;;;;;;;13.88;4.53;;;;;;;;;;6239692;28;20124;-63
2022/01/21 06:53:01;;;;;;;17.23;4.72;;;;;;;;;;6241984;28;20033;-61
2022/01/21 06:56:02;;;;;;;9.77;4.43;;;;;;;;;;6238837;28;20666;-61
2022/01/21 06:59:03;;;;;;;11.95;4.43;;;;;;;;;;6239871;28;20095;-61
2022/01/21 07:02:04;;;;;;;13.95;4.40;;;;;;;;;;6242006;28;20049;-62
2022/01/21 07:05:07;;;;;;;13.18;4.90;;;;;;;;;;6238478;28;20045;-61
2022/01/21 07:08:07;;;;;;;17.35;4.43;;;;;;;;;;6240327;28;20037;-61
2022/01/21 07:11:08;;;;;;;19.23;4.45;;;;;;;;;;6235121;28;20373;-62
2022/01/21 07:14:08;;;;;;;13.18;4.65;;;;;;;;;;6238070;28;20151;-61
2022/01/21 07:17:09;;;;;;;17.10;5.05;;;;;;;;;;6234292;28;20081;-63
2022/01/21 07:20:10;;;;;;;10.55;4.93;;;;;;;;;;6234176;28;20056;-62
2022/01/21 07:23:12;;;;;;;14.15;4.80;;;;;;;;;;6234208;28;20746;-62
2022/01/21 07:26:14;;;;;;;14.82;5.75;;;;;;;;;;6233039;28;20053;-62
2022/01/21 07:29:15;;;;;;;17.42;5.90;;;;;;;;;;6235169;28;20964;-62
2022/01/21 07:32:16;;;;;;;15.93;5.40;;;;;;;;;;6232052;28;20081;-62
2022/01/21 07:35:17;;;;;;;13.43;4.80;;;;;;;;;;6235067;28;20045;-62
2022/01/21 07:38:17;;;;;;;14.48;5.55;;;;;;;;;;6233656;28;21297;-62
2022/01/21 07:41:18;;;;;;;15.07;5.25;;;;;;;;;;6237379;28;20049;-62
2022/01/21 07:44:19;;;;;;;25.35;5.68;;;;;;;;;;6232992;28;20492;-62
2022/01/21 07:47:20;;;;;;;14.38;4.30;;;;;;;;;;6233875;28;20061;-63
2022/01/21 07:50:20;;;;;;;18.52;5.57;;;;;;;;;;6239485;28;20050;-62
2022/01/21 07:53:21;;;;;;;17.40;5.97;;;;;;;;;;6241363;28;20507;-62
2022/01/21 07:56:23;;;;;;;14.02;4.75;;;;;;;;;;6244450;28;20076;-61
2022/01/21 07:59:24;;;;;;;19.38;5.40;;;;;;;;;;6241778;28;20389;-61
2022/01/21 08:02:26;;;;;;;20.73;5.68;;;;;;;;;;6243913;28;20132;-62
2022/01/21 08:05:31;;;;;;;12.82;4.70;;;;;;;;;;6242251;28;20476;-62
2022/01/21 08:08:31;;;;;;;17.75;5.57;;;;;;;;;;6239417;28;20477;-62
2022/01/21 08:11:32;;;;;;;16.40;5.25;;;;;;;;;;6239942;28;20057;-61
2022/01/21 08:14:33;;;;;;;13.63;5.65;;;;;;;;;;6239320;28;20045;-65
2022/01/21 08:17:33;;;;;;;15.75;5.72;;;;;;;;;;6238358;28;20058;-62
2022/01/21 08:20:34;;;;;;;22.10;6.53;;;;;;;;;;6236094;28;20145;-62
2022/01/21 08:23:35;;;;;;;21.38;6.50;;;;;;;;;;6237989;28;20045;-61
2022/01/21 08:26:37;;;;;;;22.27;6.68;;;;;;;;;;6243843;28;20395;-61
2022/01/21 08:29:37;;;;;;;15.65;6.13;;;;;;;;;;6237890;28;20586;-63
2022/01/21 08:32:38;;;;;;;16.95;6.38;;;;;;;;;;6240493;28;20091;-61
2022/01/21 08:35:39;;;;;;;17.80;6.18;;;;;;;;;;6241843;28;20650;-60
2022/01/21 08:38:40;;;;;;;19.38;6.50;;;;;;;;;;6241181;28;20103;-61
2022/01/21 08:41:41;;;;;;;19.02;6.25;;;;;;;;;;6238948;28;20100;-61
2022/01/21 08:44:41;;;;;;;15.90;6.35;;;;;;;;;;6237661;28;20103;-61
2022/01/21 08:47:43;;;;;;;19.98;5.60;;;;;;;;;;6239874;28;20475;-61
2022/01/21 08:50:44;;;;;;;14.88;5.72;;;;;;;;;;6239232;28;20052;-61
2022/01/21 08:53:46;;;;;;;20.27;6.32;;;;;;;;;;6240351;28;20411;-60
2022/01/21 08:56:48;;;;;;;22.83;6.25;;;;;;;;;;6241287;28;20064;-60
2022/01/21 08:59:49;;;;;;;15.02;5.10;;;;;;;;;;6241614;28;20045;-60
2022/01/21 09:02:51;;;;;;;17.15;4.97;;;;;;;;;;6242241;28;20042;-60
2022/01/21 09:05:52;;;;;;;15.43;5.07;;;;;;;;;;6241813;28;20056;-61
2022/01/21 09:08:52;;;;;;;18.38;5.78;;;;;;;;;;6240965;28;20153;-62
2022/01/21 09:11:59;;;;;;;15.38;5.05;;;;;;;;;;6239399;28;20520;-60
2022/01/21 09:15:00;;;;;;;16.75;5.57;;;;;;;;;;6237839;28;20400;-60
2022/01/21 09:18:04;;;;;;;17.05;5.35;;;;;;;;;;6235548;28;20042;-60
2022/01/21 09:21:05;;;;;;;13.45;5.35;;;;;;;;;;6237774;28;20501;-60
2022/01/21 09:24:06;;;;;;;14.50;4.80;;;;;;;;;;6234128;28;20088;-60
2022/01/21 09:27:07;;;;;;;14.18;4.57;;;;;;;;;;6236552;28;20063;-60
2022/01/21 09:30:08;;;;;;;14.63;5.00;;;;;;;;;;6236083;28;20116;-60
2022/01/21 09:33:10;;;;;;;10.82;5.07;;;;;;;;;;6237929;28;20732;-60
2022/01/21 09:36:11;;;;;;;13.90;4.55;;;;;;;;;;6237540;28;20083;-60
2022/01/21 09:39:13;;;;;;;14.50;4.40;;;;;;;;;;6236442;28;20050;-60
2022/01/21 09:42:14;;;;;;;22.17;4.90;;;;;;;;;;6236807;28;20695;-60
2022/01/21 09:45:19;;;;;;;10.10;3.97;;;;;;;;;;6233631;28;20140;-60
2022/01/21 09:48:24;;;;;;;12.13;3.97;;;;;;;;;;6233428;28;20049;-60
2022/01/21 09:51:26;;;;;;;21.02;5.78;;;;;;;;;;6232906;28;20053;-60
2022/01/21 09:54:31;;;;;;;12.38;3.55;;;;;;;;;;6236663;28;20494;-60
2022/01/21 09:57:32;;;;;;;15.48;3.97;;;;;;;;;;6235438;28;20056;-60
2022/01/21 10:00:34;;;;;;;15.32;3.97;;;;;;;;;;6235919;28;20488;-60
2022/01/21 10:03:35;;;;;;;12.15;3.53;;;;;;;;;;6235002;28;20049;-60
2022/01/21 10:06:37;;;;;;;14.07;3.30;;;;;;;;;;6234173;28;20045;-60
2022/01/21 10:09:38;;;;;;;11.70;3.65;;;;;;;;;;6235613;28;20117;-60
2022/01/21 10:12:45;;;;;;;9.07;3.83;;;;;;;;;;6234759;28;20049;-60
2022/01/21 10:15:47;;;;;;;12.18;3.80;;;;;;;;;;6235379;28;20041;-60
2022/01/21 10:19:06;;;;;;;14.25;3.30;;;;;;;;;;6235633;28;20484;-60
2022/01/21 10:22:19;;;;;;;9.85;3.28;;;;;;;;;;6237469;28;20048;-62
2022/01/21 10:25:20;;;;;;;10.07;3.67;;;;;;;;;;6236359;28;20049;-62
2022/01/21 10:28:20;;;;;;;13.07;3.88;;;;;;;;;;6237247;28;20654;-62
2022/01/21 10:31:22;;;;;;;9.25;3.10;;;;;;;;;;6237128;28;20586;-62
2022/01/21 10:34:44;;;;;;;8.90;2.70;;;;;;;;;;6235083;28;20131;-62
2022/01/21 10:37:45;;;;;;;17.73;4.40;;;;;;;;;;6235959;28;20050;-62
2022/01/21 10:40:46;;;;;;;10.77;3.30;;;;;;;;;;6236249;28;20176;-61
2022/01/21 10:44:12;;;;;;;13.32;3.97;;;;;;;;;;6234651;28;20142;-60
2022/01/21 10:47:13;;;;;;;12.32;3.50;;;;;;;;;;6230016;28;20053;-61
2022/01/21 10:50:18;;;;;;;8.32;3.00;;;;;;;;;;6234827;28;20654;-62
2022/01/21 10:53:29;;;;;;;11.65;3.75;;;;;;;;;;6233258;28;20129;-63
2022/01/21 10:56:30;;;;;;;10.05;3.17;;;;;;;;;;6233821;28;20143;-60
2022/01/21 10:59:50;;;;;;;12.85;3.05;;;;;;;;;;6234556;28;20045;-62
2022/01/21 11:02:54;;;;;;;7.15;2.38;;;;;;;;;;6235144;28;20087;-59
2022/01/21 11:06:17;;;;;;;9.75;3.22;;;;;;;;;;6236742;28;20072;-60
2022/01/21 11:09:23;;;;;;;11.80;2.78;;;;;;;;;;6238791;28;20076;-59
2022/01/21 11:12:26;;;;;;;12.48;3.45;;;;;;;;;;6235611;28;20034;-61
2022/01/21 11:15:46;;;;;;;10.80;3.45;;;;;;;;;;6238643;28;20064;-61
2022/01/21 11:18:50;;;;;;;9.85;2.78;;;;;;;;;;6237707;28;20488;-61
2022/01/21 11:21:54;;;;;;;9.70;3.63;;;;;;;;;;6240888;28;20084;-61
2022/01/21 11:24:59;;;;;;;6.03;2.20;;;;;;;;;;6243346;28;20055;-61
2022/01/21 11:27:59;;;;;;;9.20;3.45;;;;;;;;;;6243746;28;20079;-62
2022/01/21 11:31:00;;;;;;;9.85;3.17;;;;;;;;;;6244467;28;20187;-62
2022/01/21 11:34:02;;;;;;;8.40;3.00;;;;;;;;;;6241482;28;20049;-61
2022/01/21 11:37:04;;;;;;;7.97;2.63;;;;;;;;;;6242494;28;20084;-61
2022/01/21 11:40:06;;;;;;;16.88;3.42;;;;;;;;;;6246779;28;20317;-60
2022/01/21 11:43:09;;;;;;;10.90;3.60;;;;;;;;;;6244671;28;20057;-60
2022/01/21 11:49:19;;;;;;;12.50;3.72;;;;;;;;;;6241700;28;20132;-59
2022/01/21 11:52:21;;;;;;;12.77;3.47;;;;;;;;;;6243085;28;20041;-59
2022/01/21 11:55:41;;;;;;;13.90;4.18;;;;;;;;;;6242637;28;20042;-62
2022/01/21 11:59:01;;;;;;;11.52;3.63;;;;;;;;;;6239967;28;20044;-61
2022/01/21 12:02:22;;;;;;;16.08;4.20;;;;;;;;;;6243223;28;20793;-61
2022/01/21 12:05:26;;;;;;;12.10;3.60;;;;;;;;;;6242850;28;20041;-61
2022/01/21 12:08:47;;;;;;;5.50;2.47;;;;;;;;;;6242087;28;20037;-60
2022/01/21 12:11:56;;;;;;;12.88;3.08;;;;;;;;;;6238598;28;20102;-60
2022/01/21 12:15:02;;;;;;;11.15;2.92;;;;;;;;;;6235697;28;20046;-60
2022/01/21 12:22:18;;;;;;;13.65;3.67;;;;;;;;;;6238413;28;20136;-60
2022/01/21 12:25:19;;;;;;;7.32;2.85;;;;;;;;;;6238847;28;20080;-60
2022/01/21 12:28:21;;;;;;;12.73;2.88;;;;;;;;;;6238209;28;20037;-60
2022/01/21 12:31:24;;;;;;;8.77;2.60;;;;;;;;;;6238894;28;20120;-61
2022/01/21 12:34:26;;;;;;;9.38;2.97;;;;;;;;;;6236096;28;20038;-60
2022/01/21 12:37:37;;;;;;;;;;;;;;;;;;6238509;28;20137;-61
2022/01/21 12:40:38;;;;;;;10.07;2.80;;;;;;;;;;6235548;28;19920;-60
2022/01/21 12:44:02;;;;;;;7.72;2.55;;;;;;;;;;6240078;28;20114;-60
2022/01/21 12:47:32;;;;;;;9.00;3.08;;;;;;;;;;6234493;28;20469;-60
2022/01/21 12:50:37;;;;;;;12.52;3.00;;;;;;;;;;6240712;28;20048;-60
2022/01/21 12:55:54;;;;;;;11.90;3.47;;;;;;;;;;6236169;28;20136;-60
2022/01/21 12:56:59;;;;;;;10.25;3.05;;;;;;;;;;6235794;28;20065;-61
2022/01/21 13:00:08;;;;;;;8.27;2.67;;;;;;;;;;6237202;28;20045;-61
2022/01/21 13:03:29;;;;;;;10.00;2.70;;;;;;;;;;6238189;28;20045;-60
2022/01/21 13:06:37;;;;;;;15.15;2.88;;;;;;;;;;6228144;28;20149;-60
2022/01/21 13:10:06;;;;;;;10.40;2.88;;;;;;;;;;6267511;28;20045;-60
2022/01/21 13:16:08;;;;;;;7.78;2.47;;;;;;;;;;6238024;28;20037;-61
2022/01/21 13:19:09;;;;;;;12.48;2.95;;;;;;;;;;6237919;28;21975;-60
2022/01/21 13:22:27;;;;;;;6.75;2.63;;;;;;;;;;6237317;28;20057;-61
2022/01/21 13:25:31;;;;;;;9.43;2.75;;;;;;;;;;6233229;28;20112;-60
2022/01/21 13:28:31;;;;;;;7.95;2.15;;;;;;;;;;6237766;28;20060;-59
2022/01/21 13:31:54;;;;;;;10.35;2.75;;;;;;;;;;6236917;28;20221;-61
2022/01/21 13:35:09;;;;;;;8.05;2.58;;;;;;;;;;6231979;28;20041;-61
2022/01/21 13:38:10;;;;;;;11.63;2.72;;;;;;;;;;6224533;28;20463;-59
2022/01/21 13:41:13;;;;;;;10.30;2.60;;;;;;;;;;6226265;28;20176;-60
2022/01/21 13:44:25;;;;;;;7.70;2.70;;;;;;;;;;6224377;28;20052;-62
2022/01/21 13:47:45;;;;;;;11.27;2.83;;;;;;;;;;6222143;28;20165;-59
2022/01/21 13:50:47;;;;;;;6.30;2.50;;;;;;;;;;6223976;28;20053;-58
2022/01/21 13:53:48;;;;;;;6.60;2.42;;;;;;;;;;6225323;28;20488;-60
2022/01/21 13:56:48;;;;;;;9.35;3.05;;;;;;;;;;6223688;28;20068;-59
2022/01/21 13:59:49;;;;;;;9.55;2.55;;;;;;;;;;6222952;28;20057;-59
2022/01/21 14:03:05;;;;;;;11.90;2.85;;;;;;;;;;6224854;28;20049;-59
2022/01/21 14:06:07;;;;;;;13.05;2.90;;;;;;;;;;6221099;28;20125;-60
2022/01/21 14:09:07;;;;;;;7.63;2.97;;;;;;;;;;6224201;28;20057;-59
2022/01/21 14:12:11;;;;;;;10.00;2.97;;;;;;;;;;6223496;28;20056;-59
2022/01/21 14:15:12;;;;;;;12.73;3.88;;;;;;;;;;6221658;28;20049;-59
2022/01/21 14:18:13;;;;;;;11.50;3.30;;;;;;;;;;6223091;28;20626;-59
2022/01/21 14:21:21;;;;;;;9.02;3.40;;;;;;;;;;6222323;28;20049;-61
2022/01/21 14:24:23;;;;;;;12.65;3.00;;;;;;;;;;6223371;28;20073;-59
2022/01/21 14:27:27;;;;;;;8.40;2.90;;;;;;;;;;6222543;28;20075;-59
2022/01/21 14:30:28;;;;;;;14.13;3.80;;;;;;;;;;6223318;28;20095;-60
2022/01/21 14:33:41;;;;;;;8.73;2.80;;;;;;;;;;6224559;28;20057;-59
2022/01/21 14:36:43;;;;;;;9.13;2.88;;;;;;;;;;6219900;28;20095;-61
2022/01/21 14:39:49;;;;;;;13.77;3.67;;;;;;;;;;6224562;28;20087;-62
2022/01/21 14:43:04;;;;;;;15.32;3.33;;;;;;;;;;6226911;28;20080;-62
2022/01/21 14:46:06;;;;;;;12.25;3.88;;;;;;;;;;6227626;28;20046;-60
2022/01/21 14:49:08;;;;;;;15.77;5.18;;;;;;;;;;6228220;28;20052;-61
2022/01/21 14:55:33;;;;;;;12.95;3.70;;;;;;;;;;6221563;28;20511;-60
2022/01/21 14:58:35;;;;;;;12.40;4.10;;;;;;;;;;6225795;28;20525;-61
2022/01/21 15:01:35;;;;;;;15.18;3.85;;;;;;;;;;6228541;28;20128;-61
2022/01/21 15:04:38;;;;;;;11.35;3.97;;;;;;;;;;6228086;28;20758;-62
2022/01/21 15:07:41;;;;;;;15.55;4.88;;;;;;;;;;6233776;28;20045;-61
2022/01/21 15:10:44;;;;;;;17.02;3.88;;;;;;;;;;6235943;28;20788;-61
2022/01/21 15:17:08;;;;;;;16.42;4.32;;;;;;;;;;6236257;28;20480;-61
2022/01/21 15:20:10;;;;;;;16.58;4.60;;;;;;;;;;6237892;28;20096;-61
2022/01/21 15:23:11;;;;;;;12.93;4.85;;;;;;;;;;6233397;28;20584;-61
2022/01/21 15:26:17;;;;;;;13.82;4.45;;;;;;;;;;6236750;28;20436;-61
2022/01/21 15:29:18;;;;;;;14.75;4.95;;;;;;;;;;6237356;28;20052;-58
2022/01/21 15:32:20;;;;;;;19.05;5.43;;;;;;;;;;6236430;28;20437;-62
2022/01/21 15:35:21;;;;;;;17.05;6.00;;;;;;;;;;6236612;28;20084;-61
2022/01/21 15:38:22;;;;;;;26.45;6.45;;;;;;;;;;6239985;28;20073;-61
2022/01/21 15:41:23;;;;;;;16.75;5.85;;;;;;;;;;6237404;28;20049;-61
2022/01/21 15:44:23;;;;;;;16.17;5.60;;;;;;;;;;6238683;28;20140;-61
2022/01/21 15:47:24;;;;;;;18.55;6.50;;;;;;;;;;6238420;28;20092;-61
2022/01/21 15:50:26;;;;;;;16.25;5.88;;;;;;;;;;6241442;28;20103;-61
2022/01/21 15:53:27;;;;;;;16.15;5.25;;;;;;;;;;6238715;28;20057;-61
2022/01/21 15:56:28;;;;;;;20.00;6.70;;;;;;;;;;6238838;28;20069;-60
2022/01/21 15:59:29;;;;;;;19.98;6.80;;;;;;;;;;6236862;28;20411;-62
2022/01/21 16:02:30;;;;;;;19.05;5.90;;;;;;;;;;6236310;28;20057;-61
2022/01/21 16:05:31;;;;;;;17.73;5.80;;;;;;;;;;6235986;28;20132;-61
2022/01/21 16:08:32;;;;;;;18.45;6.03;;;;;;;;;;6234664;28;20694;-61
2022/01/21 16:11:33;;;;;;;17.23;5.85;;;;;;;;;;6239059;28;20136;-60
2022/01/21 16:14:34;;;;;;;20.25;6.57;;;;;;;;;;6238328;28;20063;-61
2022/01/21 16:17:35;;;;;;;19.70;6.90;;;;;;;;;;6235897;28;20072;-61
2022/01/21 16:20:37;;;;;;;23.38;6.60;;;;;;;;;;6237417;28;20115;-61
2022/01/21 16:23:37;;;;;;;20.17;6.53;;;;;;;;;;6239390;28;20044;-61
2022/01/21 16:26:40;;;;;;;20.77;7.13;;;;;;;;;;6238688;28;20052;-61
2022/01/21 16:29:40;;;;;;;18.02;6.25;;;;;;;;;;6236677;28;20053;-61
2022/01/21 16:32:41;;;;;;;16.23;6.38;;;;;;;;;;6236818;28;20104;-62
2022/01/21 16:35:42;;;;;;;18.40;6.82;;;;;;;;;;6235678;28;20540;-61
2022/01/21 16:38:42;;;;;;;20.08;6.75;;;;;;;;;;6247954;28;20054;-61
2022/01/21 16:41:43;;;;;;;19.15;6.63;;;;;;;;;;6237063;28;20152;-61
2022/01/21 16:44:44;;;;;;;18.13;6.25;;;;;;;;;;6236877;28;20468;-61
2022/01/21 16:47:46;;;;;;;21.30;6.60;;;;;;;;;;6235761;28;20057;-61
2022/01/21 16:50:47;;;;;;;20.85;7.18;;;;;;;;;;6237041;28;20041;-62
2022/01/21 16:53:48;;;;;;;20.08;6.25;;;;;;;;;;6236549;28;20049;-61
2022/01/21 16:56:55;;;;;;;24.85;7.45;;;;;;;;;;6237754;28;20048;-61
2022/01/21 16:59:58;;;;;;;24.05;7.53;;;;;;;;;;6237611;28;20061;-62
2022/01/21 17:03:01;;;;;;;23.75;8.23;;;;;;;;;;6238721;28;20050;-61
2022/01/21 17:06:03;;;;;;;26.50;7.88;;;;;;;;;;6240354;28;20057;-62
2022/01/21 17:09:04;;;;;;;23.77;7.50;;;;;;;;;;6242815;28;20053;-62
2022/01/21 17:12:05;;;;;;;24.23;8.45;;;;;;;;;;6258228;28;20087;-61
2022/01/21 17:15:06;;;;;;;22.35;7.22;;;;;;;;;;6239305;28;20560;-61
2022/01/21 17:18:07;;;;;;;21.00;8.48;;;;;;;;;;6237371;28;20038;-61
2022/01/21 17:21:08;;;;;;;21.50;7.15;;;;;;;;;;6238156;28;20480;-62
2022/01/21 17:24:08;;;;;;;18.90;6.95;;;;;;;;;;6238742;28;20054;-61
2022/01/21 17:27:11;;;;;;;24.70;8.40;;;;;;;;;;6239501;28;20049;-61
2022/01/21 17:30:13;;;;;;;18.73;6.72;;;;;;;;;;6238726;28;20515;-62
2022/01/21 17:33:14;;;;;;;16.27;6.80;;;;;;;;;;6237474;28;20456;-62
2022/01/21 17:36:15;;;;;;;24.17;7.28;;;;;;;;;;6235622;28;20067;-61
2022/01/21 17:39:17;;;;;;;19.27;6.60;;;;;;;;;;6235056;28;20142;-62
2022/01/21 17:42:19;;;;;;;20.60;8.77;;;;;;;;;;6234051;28;20515;-62
2022/01/21 17:45:22;;;;;;;;;;;;;;;;;;6233155;28;20136;-62
2022/01/21 17:48:22;;;;;;;24.05;8.45;;;;;;;;;;6234624;28;19921;-62
2022/01/21 17:51:23;;;;;;;21.23;8.10;;;;;;;;;;6235707;28;20479;-62
2022/01/21 17:54:24;;;;;;;21.33;8.27;;;;;;;;;;6234971;28;20116;-62
2022/01/21 17:57:25;;;;;;;26.60;9.70;;;;;;;;;;6233472;28;20056;-62
2022/01/21 18:00:26;;;;;;;26.52;9.10;;;;;;;;;;6237141;28;20603;-62
2022/01/21 18:03:27;;;;;;;23.20;8.40;;;;;;;;;;6239331;28;20392;-62
2022/01/21 18:06:27;;;;;;;27.25;9.88;;;;;;;;;;6232739;28;20132;-62
2022/01/21 18:09:39;;;;;;;22.42;6.72;;;;;;;;;;6234600;28;20072;-61
2022/01/21 18:12:40;;;;;;;24.75;8.38;;;;;;;;;;6235601;28;20041;-61
2022/01/21 18:15:41;;;;;;;19.13;7.38;;;;;;;;;;6235811;28;20191;-62
2022/01/21 18:18:42;;;;;;;18.67;7.05;;;;;;;;;;6238151;28;20124;-62
2022/01/21 18:21:43;;;;;;;21.73;6.97;;;;;;;;;;6236741;28;20404;-63
2022/01/21 18:24:45;;;;;;;28.58;7.47;;;;;;;;;;6232718;28;20040;-63
2022/01/21 18:27:46;;;;;;;;;;;;;;;;;;6234023;28;20048;-62
2022/01/21 18:30:47;;;;;;;16.48;5.72;;;;;;;;;;6237826;28;20032;-62
2022/01/21 18:33:47;;;;;;;16.20;6.25;;;;;;;;;;6233980;28;20053;-62
2022/01/21 18:36:48;;;;;;;19.15;7.47;;;;;;;;;;6235662;28;20135;-62
2022/01/21 18:39:49;;;;;;;20.50;8.30;;;;;;;;;;6236415;28;20061;-62
2022/01/21 18:42:52;;;;;;;24.88;8.68;;;;;;;;;;6233662;28;20065;-62
2022/01/21 18:45:56;;;;;;;24.55;8.82;;;;;;;;;;6232952;28;20072;-62
2022/01/21 18:49:01;;;;;;;25.65;9.80;;;;;;;;;;6235230;28;20076;-62
2022/01/21 18:52:02;;;;;;;22.30;8.63;;;;;;;;;;6235545;28;20382;-63
2022/01/21 18:55:03;;;;;;;27.00;8.43;;;;;;;;;;6241933;28;20136;-62
2022/01/21 18:58:04;;;;;;;25.33;8.90;;;;;;;;;;6237535;28;20045;-61
2022/01/21 19:01:07;;;;;;;28.77;9.48;;;;;;;;;;6238026;28;20144;-61
2022/01/21 19:04:09;;;;;;;29.98;9.43;;;;;;;;;;6237881;28;20067;-61
2022/01/21 19:07:10;;;;;;;33.60;10.63;;;;;;;;;;6238065;28;20056;-61
2022/01/21 19:10:18;;;;;;;22.45;8.65;;;;;;;;;;6240235;28;20053;-62